sensor_id;sensor_type;location;lat;lon;timestamp;pressure;altitude;pressure_sealevel;temperature;humidity
3590;BME280;1809;48.470;9.226;2023-12-29T00:01:12;-16474.91;;;10.98;100.00
3590;BME280;1809;48.470;9.226;2023-12-29T00:03:38;-16478.44;;;11.10;100.00
3590;BME280;1809;48.470;9.226;2023-12-29T00:06:03;-16480.13;;;11.16;100.00
3590;BME280;1809;48.470;9.226;2023-12-29T00:08:29;-16482.06;;;11.23;100.00
3590;BME280;1809;48.470;9.226;2023-12-29T00:10:55;-16482.06;;;11.23;100.00
3590;BME280;1809;48.470;9.226;2023-12-29T00:13:20;-16477.16;;;11.06;100.00
3590;BME280;1809;48.470;9.226;2023-12-29T00:15:51;-16480.53;;;11.18;100.00
3590;BME280;1809;48.470;9.226;2023-12-29T00:18:17;-16478.00;;;11.09;100.00
3590;BME280;1809;48.470;9.226;2023-12-29T00:20:42;-16480.25;;;11.17;100.00
3590;BME280;1809;48.470;9.226;2023-12-29T00:23:07;-16482.22;;;11.24;100.00
3590;BME280;1809;48.470;9.226;2023-12-29T00:25:35;-16482.06;;;11.23;100.00
3590;BME280;1809;48.470;9.226;2023-12-29T00:28:02;-16483.34;;;11.28;100.00
3590;BME280;1809;48.470;9.226;2023-12-29T00:30:27;-16484.19;;;11.31;100.00
3590;BME280;1809;48.470;9.226;2023-12-29T00:32:55;-16484.59;;;11.32;100.00
3590;BME280;1809;48.470;9.226;2023-12-29T00:35:20;-16485.88;;;11.37;100.00
3590;BME280;1809;48.470;9.226;2023-12-29T00:37:45;-16488.13;;;11.45;100.00
3590;BME280;1809;48.470;9.226;2023-12-29T00:40:11;-16488.25;;;11.46;100.00
3590;BME280;1809;48.470;9.226;2023-12-29T00:42:36;-16487.28;;;11.42;100.00
3590;BME280;1809;48.470;9.226;2023-12-29T00:45:02;-16487.84;;;11.44;100.00
3590;BME280;1809;48.470;9.226;2023-12-29T00:47:27;-16489.22;;;11.49;100.00
3590;BME280;1809;48.470;9.226;2023-12-29T00:49:53;-16489.38;;;11.50;100.00
3590;BME280;1809;48.470;9.226;2023-12-29T00:52:18;-16489.09;;;11.49;100.00
3590;BME280;1809;48.470;9.226;2023-12-29T00:54:44;-16490.63;;;11.54;100.00
3590;BME280;1809;48.470;9.226;2023-12-29T00:57:09;-16489.81;;;11.51;100.00
3590;BME280;1809;48.470;9.226;2023-12-29T00:59:37;-16492.47;;;11.61;100.00
3590;BME280;1809;48.470;9.226;2023-12-29T01:02:04;-16492.31;;;11.60;100.00
3590;BME280;1809;48.470;9.226;2023-12-29T01:04:29;-16492.31;;;11.60;100.00
3590;BME280;1809;48.470;9.226;2023-12-29T01:06:54;-16492.47;;;11.61;100.00
3590;BME280;1809;48.470;9.226;2023-12-29T01:09:20;-16493.03;;;11.63;100.00
3590;BME280;1809;48.470;9.226;2023-12-29T01:11:45;-16489.50;;;11.50;100.00
3590;BME280;1809;48.470;9.226;2023-12-29T01:14:10;-16490.34;;;11.53;100.00
3590;BME280;1809;48.470;9.226;2023-12-29T01:16:36;-16489.66;;;11.51;100.00
3590;BME280;1809;48.470;9.226;2023-12-29T01:19:01;-16486.56;;;11.40;100.00
3590;BME280;1809;48.470;9.226;2023-12-29T01:21:26;-16484.47;;;11.32;100.00
3590;BME280;1809;48.470;9.226;2023-12-29T01:23:52;-16478.84;;;11.12;100.00
3590;BME280;1809;48.470;9.226;2023-12-29T01:26:17;-16475.75;;;11.01;100.00
3590;BME280;1809;48.470;9.226;2023-12-29T01:28:42;-16475.19;;;10.99;100.00
3590;BME280;1809;48.470;9.226;2023-12-29T01:31:08;-16475.19;;;10.99;100.00
3590;BME280;1809;48.470;9.226;2023-12-29T01:33:34;-16474.78;;;10.97;100.00
3590;BME280;1809;48.470;9.226;2023-12-29T01:36:00;-16475.91;;;11.01;100.00
3590;BME280;1809;48.470;9.226;2023-12-29T01:38:25;-16476.88;;;11.05;100.00
3590;BME280;1809;48.470;9.226;2023-12-29T01:40:50;-16477.16;;;11.06;100.00
3590;BME280;1809;48.470;9.226;2023-12-29T01:43:16;-16477.16;;;11.06;100.00
3590;BME280;1809;48.470;9.226;2023-12-29T01:45:41;-16476.59;;;11.04;100.00
3590;BME280;1809;48.470;9.226;2023-12-29T01:48:07;-16476.03;;;11.02;100.00
3590;BME280;1809;48.470;9.226;2023-12-29T01:50:33;-16474.34;;;10.96;100.00
3590;BME280;1809;48.470;9.226;2023-12-29T01:53:01;-16473.94;;;10.94;100.00
3590;BME280;1809;48.470;9.226;2023-12-29T01:55:27;-16474.34;;;10.96;100.00
3590;BME280;1809;48.470;9.226;2023-12-29T01:57:53;-16472.66;;;10.90;100.00
3590;BME280;1809;48.470;9.226;2023-12-29T02:00:19;-16472.09;;;10.88;100.00
3590;BME280;1809;48.470;9.226;2023-12-29T02:02:46;-16472.53;;;10.89;100.00
3590;BME280;1809;48.470;9.226;2023-12-29T02:05:14;-16470.69;;;10.83;100.00
3590;BME280;1809;48.470;9.226;2023-12-29T02:07:41;-16471.53;;;10.86;100.00
3590;BME280;1809;48.470;9.226;2023-12-29T02:10:07;-16470.13;;;10.80;100.00
3590;BME280;1809;48.470;9.226;2023-12-29T02:12:34;-16467.63;;;10.71;100.00
3590;BME280;1809;48.470;9.226;2023-12-29T02:15:02;-16465.78;;;10.65;100.00
3590;BME280;1809;48.470;9.226;2023-12-29T02:17:31;-16464.81;;;10.61;100.00
3590;BME280;1809;48.470;9.226;2023-12-29T02:20:01;-16462.84;;;10.54;100.00
3590;BME280;1809;48.470;9.226;2023-12-29T02:22:26;-16462.56;;;10.53;100.00
3590;BME280;1809;48.470;9.226;2023-12-29T02:24:52;-16461.72;;;10.50;100.00
3590;BME280;1809;48.470;9.226;2023-12-29T02:32:37;-16461.00;;;10.48;100.00
3590;BME280;1809;48.470;9.226;2023-12-29T02:35:04;-16461.72;;;10.50;100.00
3590;BME280;1809;48.470;9.226;2023-12-29T02:37:34;-16459.19;;;10.41;100.00
3590;BME280;1809;48.470;9.226;2023-12-29T02:40:01;-16461.16;;;10.48;100.00
3590;BME280;1809;48.470;9.226;2023-12-29T02:42:26;-16461.84;;;10.51;100.00
3590;BME280;1809;48.470;9.226;2023-12-29T02:44:52;-16463.69;;;10.57;100.00
3590;BME280;1809;48.470;9.226;2023-12-29T02:47:17;-16463.25;;;10.56;100.00
3590;BME280;1809;48.470;9.226;2023-12-29T02:49:44;-16465.22;;;10.63;100.00
3590;BME280;1809;48.470;9.226;2023-12-29T02:52:09;-16466.78;;;10.68;100.00
3590;BME280;1809;48.470;9.226;2023-12-29T02:54:35;-16466.22;;;10.66;100.00
3590;BME280;1809;48.470;9.226;2023-12-29T02:57:00;-16466.22;;;10.66;100.00
3590;BME280;1809;48.470;9.226;2023-12-29T02:59:25;-16468.44;;;10.74;100.00
3590;BME280;1809;48.470;9.226;2023-12-29T03:01:51;-16469.16;;;10.77;100.00
3590;BME280;1809;48.470;9.226;2023-12-29T03:04:16;-16470.97;;;10.84;100.00
3590;BME280;1809;48.470;9.226;2023-12-29T03:06:41;-16470.97;;;10.84;100.00
3590;BME280;1809;48.470;9.226;2023-12-29T03:09:07;-16470.97;;;10.84;100.00
3590;BME280;1809;48.470;9.226;2023-12-29T03:11:32;-16470.13;;;10.80;100.00
3590;BME280;1809;48.470;9.226;2023-12-29T03:13:57;-16467.63;;;10.71;100.00
3590;BME280;1809;48.470;9.226;2023-12-29T03:16:23;-16467.06;;;10.69;100.00
3590;BME280;1809;48.470;9.226;2023-12-29T03:18:48;-16464.81;;;10.61;100.00
3590;BME280;1809;48.470;9.226;2023-12-29T03:21:13;-16463.69;;;10.57;100.00
3590;BME280;1809;48.470;9.226;2023-12-29T03:23:39;-16461.16;;;10.48;100.00
3590;BME280;1809;48.470;9.226;2023-12-29T03:26:04;-16458.91;;;10.40;100.00
3590;BME280;1809;48.470;9.226;2023-12-29T03:28:29;-16458.63;;;10.39;100.00
3590;BME280;1809;48.470;9.226;2023-12-29T03:30:55;-16456.94;;;10.33;100.00
3590;BME280;1809;48.470;9.226;2023-12-29T03:33:20;-16459.03;;;10.41;100.00
3590;BME280;1809;48.470;9.226;2023-12-29T03:35:46;-16456.38;;;10.31;100.00
3590;BME280;1809;48.470;9.226;2023-12-29T03:38:12;-16454.97;;;10.26;100.00
3590;BME280;1809;48.470;9.226;2023-12-29T03:40:38;-16454.97;;;10.26;100.00
3590;BME280;1809;48.470;9.226;2023-12-29T03:43:03;-16455.25;;;10.27;100.00
3590;BME280;1809;48.470;9.226;2023-12-29T03:45:28;-16454.69;;;10.25;100.00
3590;BME280;1809;48.470;9.226;2023-12-29T03:47:54;-16076.28;;;10.28;100.00
3590;BME280;1809;48.470;9.226;2023-12-29T03:50:19;-16393.03;;;10.24;100.00
3590;BME280;1809;48.470;9.226;2023-12-29T03:52:44;-16454.97;;;10.26;100.00
3590;BME280;1809;48.470;9.226;2023-12-29T03:55:10;-16454.84;;;10.25;100.00
3590;BME280;1809;48.470;9.226;2023-12-29T03:57:36;-15960.38;;;10.20;100.00
3590;BME280;1809;48.470;9.226;2023-12-29T04:00:02;-15743.69;;;10.21;100.00
3590;BME280;1809;48.470;9.226;2023-12-29T04:02:27;-16456.09;;;10.30;100.00
3590;BME280;1809;48.470;9.226;2023-12-29T04:04:53;-16458.78;;;10.40;100.00
3590;BME280;1809;48.470;9.226;2023-12-29T04:07:18;-16456.81;;;10.33;100.00
3590;BME280;1809;48.470;9.226;2023-12-29T04:09:43;-16458.06;;;10.37;100.00
3590;BME280;1809;48.470;9.226;2023-12-29T04:12:09;-16457.22;;;10.34;100.00
3590;BME280;1809;48.470;9.226;2023-12-29T04:14:34;-16458.06;;;10.37;100.00
3590;BME280;1809;48.470;9.226;2023-12-29T04:16:59;-16459.88;;;10.44;100.00
3590;BME280;1809;48.470;9.226;2023-12-29T04:19:28;-16462.69;;;10.54;100.00
3590;BME280;1809;48.470;9.226;2023-12-29T04:21:53;-16464.81;;;10.61;100.00
3590;BME280;1809;48.470;9.226;2023-12-29T04:24:19;-16465.09;;;10.62;100.00
3590;BME280;1809;48.470;9.226;2023-12-29T04:26:44;-16464.25;;;10.59;100.00
3590;BME280;1809;48.470;9.226;2023-12-29T04:29:10;-16465.94;;;10.65;100.00
3590;BME280;1809;48.470;9.226;2023-12-29T04:31:35;-16466.50;;;10.67;100.00
3590;BME280;1809;48.470;9.226;2023-12-29T04:34:00;-16467.34;;;10.70;100.00
3590;BME280;1809;48.470;9.226;2023-12-29T04:36:25;-16465.66;;;10.64;100.00
3590;BME280;1809;48.470;9.226;2023-12-29T04:38:51;-16465.38;;;10.63;100.00
3590;BME280;1809;48.470;9.226;2023-12-29T04:41:16;-16465.09;;;10.62;100.00
3590;BME280;1809;48.470;9.226;2023-12-29T04:43:41;-16464.81;;;10.61;100.00
3590;BME280;1809;48.470;9.226;2023-12-29T04:46:07;-16462.84;;;10.54;100.00
3590;BME280;1809;48.470;9.226;2023-12-29T04:48:32;-16462.41;;;10.53;100.00
3590;BME280;1809;48.470;9.226;2023-12-29T04:50:57;-16461.44;;;10.49;100.00
3590;BME280;1809;48.470;9.226;2023-12-29T04:53:23;-16460.44;;;10.46;100.00
3590;BME280;1809;48.470;9.226;2023-12-29T04:55:48;-16461.00;;;10.48;100.00
3590;BME280;1809;48.470;9.226;2023-12-29T04:58:13;-16460.03;;;10.44;100.00
3590;BME280;1809;48.470;9.226;2023-12-29T05:00:39;-16461.16;;;10.48;100.00
3590;BME280;1809;48.470;9.226;2023-12-29T05:03:04;-16462.00;;;10.51;100.00
3590;BME280;1809;48.470;9.226;2023-12-29T05:05:30;-16462.97;;;10.55;100.00
3590;BME280;1809;48.470;9.226;2023-12-29T05:07:55;-16461.16;;;10.48;100.00
3590;BME280;1809;48.470;9.226;2023-12-29T05:10:20;-16460.88;;;10.47;100.00
3590;BME280;1809;48.470;9.226;2023-12-29T05:12:46;-16462.41;;;10.53;100.00
3590;BME280;1809;48.470;9.226;2023-12-29T05:15:11;-16461.44;;;10.49;100.00
3590;BME280;1809;48.470;9.226;2023-12-29T05:17:36;-16461.28;;;10.49;100.00
3590;BME280;1809;48.470;9.226;2023-12-29T05:20:05;-16460.31;;;10.45;100.00
3590;BME280;1809;48.470;9.226;2023-12-29T05:22:31;-16461.16;;;10.48;100.00
3590;BME280;1809;48.470;9.226;2023-12-29T05:24:56;-16460.88;;;10.47;100.00
3590;BME280;1809;48.470;9.226;2023-12-29T05:27:25;-16462.28;;;10.52;100.00
3590;BME280;1809;48.470;9.226;2023-12-29T05:29:50;-16462.00;;;10.51;100.00
3590;BME280;1809;48.470;9.226;2023-12-29T05:32:15;-16462.28;;;10.52;100.00
3590;BME280;1809;48.470;9.226;2023-12-29T05:34:41;-16461.16;;;10.48;100.00
3590;BME280;1809;48.470;9.226;2023-12-29T05:37:06;-16461.44;;;10.49;100.00
3590;BME280;1809;48.470;9.226;2023-12-29T05:39:31;-16460.31;;;10.45;100.00
3590;BME280;1809;48.470;9.226;2023-12-29T05:41:57;-16459.75;;;10.43;100.00
3590;BME280;1809;48.470;9.226;2023-12-29T05:44:22;-16460.59;;;10.46;100.00
3590;BME280;1809;48.470;9.226;2023-12-29T05:46:48;-16462.28;;;10.52;100.00
3590;BME280;1809;48.470;9.226;2023-12-29T05:49:13;-16462.00;;;10.51;100.00
3590;BME280;1809;48.470;9.226;2023-12-29T05:51:39;-16462.00;;;10.51;100.00
3590;BME280;1809;48.470;9.226;2023-12-29T05:54:04;-16462.69;;;10.54;100.00
3590;BME280;1809;48.470;9.226;2023-12-29T05:56:30;-16460.59;;;10.46;100.00
3590;BME280;1809;48.470;9.226;2023-12-29T05:58:56;-16461.44;;;10.49;100.00
3590;BME280;1809;48.470;9.226;2023-12-29T06:01:21;-16462.41;;;10.53;100.00
3590;BME280;1809;48.470;9.226;2023-12-29T06:03:46;-16464.38;;;10.60;100.00
3590;BME280;1809;48.470;9.226;2023-12-29T06:06:12;-16465.09;;;10.62;100.00
3590;BME280;1809;48.470;9.226;2023-12-29T06:08:37;-16467.47;;;10.71;100.00
3590;BME280;1809;48.470;9.226;2023-12-29T06:11:03;-16468.03;;;10.73;100.00
3590;BME280;1809;48.470;9.226;2023-12-29T06:13:28;-16470.13;;;10.80;100.00
3590;BME280;1809;48.470;9.226;2023-12-29T06:15:54;-16471.53;;;10.86;100.00
3590;BME280;1809;48.470;9.226;2023-12-29T06:18:20;-16472.66;;;10.90;100.00
3590;BME280;1809;48.470;9.226;2023-12-29T06:20:45;-16472.66;;;10.90;100.00
3590;BME280;1809;48.470;9.226;2023-12-29T06:23:10;-16472.25;;;10.88;100.00
3590;BME280;1809;48.470;9.226;2023-12-29T06:25:36;-16474.63;;;10.97;100.00
3590;BME280;1809;48.470;9.226;2023-12-29T06:28:01;-16471.53;;;10.86;100.00
3590;BME280;1809;48.470;9.226;2023-12-29T06:30:28;-16473.22;;;10.92;100.00
3590;BME280;1809;48.470;9.226;2023-12-29T06:32:54;-16473.78;;;10.94;100.00
3590;BME280;1809;48.470;9.226;2023-12-29T06:35:19;-16474.91;;;10.98;100.00
3590;BME280;1809;48.470;9.226;2023-12-29T06:37:44;-16475.75;;;11.01;100.00
3590;BME280;1809;48.470;9.226;2023-12-29T06:40:10;-16473.22;;;10.92;100.00
3590;BME280;1809;48.470;9.226;2023-12-29T06:42:36;-16474.22;;;10.95;100.00
3590;BME280;1809;48.470;9.226;2023-12-29T06:45:01;-16475.63;;;11.00;100.00
3590;BME280;1809;48.470;9.226;2023-12-29T06:47:27;-16474.91;;;10.98;100.00
3590;BME280;1809;48.470;9.226;2023-12-29T06:49:52;-16471.69;;;10.86;100.00
3590;BME280;1809;48.470;9.226;2023-12-29T06:52:17;-16469.88;;;10.79;100.00
3590;BME280;1809;48.470;9.226;2023-12-29T06:54:43;-16469.88;;;10.79;100.00
3590;BME280;1809;48.470;9.226;2023-12-29T06:57:08;-16470.13;;;10.80;100.00
3590;BME280;1809;48.470;9.226;2023-12-29T06:59:34;-16469.88;;;10.79;100.00
3590;BME280;1809;48.470;9.226;2023-12-29T07:01:59;-16468.59;;;10.75;100.00
3590;BME280;1809;48.470;9.226;2023-12-29T07:04:25;-16466.06;;;10.66;100.00
3590;BME280;1809;48.470;9.226;2023-12-29T07:06:50;-16466.34;;;10.67;100.00
3590;BME280;1809;48.470;9.226;2023-12-29T07:09:15;-16464.94;;;10.62;100.00
3590;BME280;1809;48.470;9.226;2023-12-29T07:11:41;-16465.09;;;10.62;100.00
3590;BME280;1809;48.470;9.226;2023-12-29T07:14:06;-16464.25;;;10.59;100.00
3590;BME280;1809;48.470;9.226;2023-12-29T07:16:32;-16465.22;;;10.63;100.00
3590;BME280;1809;48.470;9.226;2023-12-29T07:18:57;-16464.25;;;10.59;100.00
3590;BME280;1809;48.470;9.226;2023-12-29T07:21:22;-16462.97;;;10.55;100.00
3590;BME280;1809;48.470;9.226;2023-12-29T07:23:48;-16461.44;;;10.49;100.00
3590;BME280;1809;48.470;9.226;2023-12-29T07:26:13;-16462.56;;;10.53;100.00
3590;BME280;1809;48.470;9.226;2023-12-29T07:28:39;-16461.84;;;10.51;100.00
3590;BME280;1809;48.470;9.226;2023-12-29T07:31:04;-16461.72;;;10.50;100.00
3590;BME280;1809;48.470;9.226;2023-12-29T07:33:30;-16461.28;;;10.49;100.00
3590;BME280;1809;48.470;9.226;2023-12-29T07:35:55;-16460.31;;;10.45;100.00
3590;BME280;1809;48.470;9.226;2023-12-29T07:38:21;-16459.88;;;10.44;100.00
3590;BME280;1809;48.470;9.226;2023-12-29T07:40:46;-16462.84;;;10.54;100.00
3590;BME280;1809;48.470;9.226;2023-12-29T07:43:13;-16463.41;;;10.56;100.00
3590;BME280;1809;48.470;9.226;2023-12-29T07:45:38;-16462.97;;;10.55;100.00
3590;BME280;1809;48.470;9.226;2023-12-29T07:48:04;-16466.22;;;10.66;100.00
3590;BME280;1809;48.470;9.226;2023-12-29T07:50:30;-16464.25;;;10.59;100.00
3590;BME280;1809;48.470;9.226;2023-12-29T07:52:55;-16468.59;;;10.75;100.00
3590;BME280;1809;48.470;9.226;2023-12-29T07:55:21;-16472.53;;;10.89;100.00
3590;BME280;1809;48.470;9.226;2023-12-29T07:57:46;-16473.38;;;10.92;100.00
3590;BME280;1809;48.470;9.226;2023-12-29T08:00:13;-16473.78;;;10.94;100.00
3590;BME280;1809;48.470;9.226;2023-12-29T08:02:39;-16473.66;;;10.93;100.00
3590;BME280;1809;48.470;9.226;2023-12-29T08:05:04;-16472.81;;;10.90;100.00
3590;BME280;1809;48.470;9.226;2023-12-29T08:07:30;-16470.69;;;10.83;100.00
3590;BME280;1809;48.470;9.226;2023-12-29T08:09:55;-16472.25;;;10.88;100.00
3590;BME280;1809;48.470;9.226;2023-12-29T08:12:20;-16469.72;;;10.79;100.00
3590;BME280;1809;48.470;9.226;2023-12-29T08:14:46;-16472.66;;;10.90;100.00
3590;BME280;1809;48.470;9.226;2023-12-29T08:17:11;-16472.38;;;10.89;100.00
3590;BME280;1809;48.470;9.226;2023-12-29T08:19:37;-16475.19;;;10.99;100.00
3590;BME280;1809;48.470;9.226;2023-12-29T08:22:03;-16479.28;;;11.13;100.00
3590;BME280;1809;48.470;9.226;2023-12-29T08:24:28;-16482.50;;;11.25;100.00
3590;BME280;1809;48.470;9.226;2023-12-29T08:26:53;-16485.59;;;11.36;100.00
3590;BME280;1809;48.470;9.226;2023-12-29T08:29:19;-16486.84;;;11.41;100.00
3590;BME280;1809;48.470;9.226;2023-12-29T08:31:45;-16489.81;;;11.51;100.00
3590;BME280;1809;48.470;9.226;2023-12-29T08:34:10;-16489.22;;;11.49;100.00
3590;BME280;1809;48.470;9.226;2023-12-29T08:36:35;-16493.16;;;11.63;100.00
3590;BME280;1809;48.470;9.226;2023-12-29T08:39:02;-16495.13;;;11.70;100.00
3590;BME280;1809;48.470;9.226;2023-12-29T08:41:27;-16496.25;;;11.74;100.00
3590;BME280;1809;48.470;9.226;2023-12-29T08:43:52;-16498.50;;;11.82;100.00
3590;BME280;1809;48.470;9.226;2023-12-29T08:46:18;-16501.88;;;11.95;100.00
3590;BME280;1809;48.470;9.226;2023-12-29T08:48:43;-16503.00;;;11.99;100.00
3590;BME280;1809;48.470;9.226;2023-12-29T08:51:09;-16505.81;;;12.09;100.00
3590;BME280;1809;48.470;9.226;2023-12-29T08:53:34;-16508.75;;;12.19;100.00
3590;BME280;1809;48.470;9.226;2023-12-29T08:56:01;-16512.53;;;12.33;100.00
3590;BME280;1809;48.470;9.226;2023-12-29T08:58:27;-16517.59;;;12.51;100.00
3590;BME280;1809;48.470;9.226;2023-12-29T09:00:52;-16519.13;;;12.57;100.00
3590;BME280;1809;48.470;9.226;2023-12-29T09:03:17;-16521.66;;;12.66;100.00
3590;BME280;1809;48.470;9.226;2023-12-29T09:05:43;-16522.38;;;12.68;100.00
3590;BME280;1809;48.470;9.226;2023-12-29T09:08:08;-16525.44;;;12.79;100.00
3590;BME280;1809;48.470;9.226;2023-12-29T09:10:34;-16527.28;;;12.86;100.00
3590;BME280;1809;48.470;9.226;2023-12-29T09:12:59;-16527.69;;;12.87;100.00
3590;BME280;1809;48.470;9.226;2023-12-29T09:15:24;-16534.84;;;13.13;100.00
3590;BME280;1809;48.470;9.226;2023-12-29T09:17:50;-16532.19;;;13.04;100.00
3590;BME280;1809;48.470;9.226;2023-12-29T09:20:16;-16531.19;;;13.00;100.00
3590;BME280;1809;48.470;9.226;2023-12-29T09:22:41;-16533.03;;;13.07;100.00
3590;BME280;1809;48.470;9.226;2023-12-29T09:25:07;-16529.09;;;12.92;100.00
3590;BME280;1809;48.470;9.226;2023-12-29T09:27:32;-16527.56;;;12.87;100.00
3590;BME280;1809;48.470;9.226;2023-12-29T09:29:58;-16527.28;;;12.86;100.00
3590;BME280;1809;48.470;9.226;2023-12-29T09:32:23;-16524.88;;;12.77;100.00
3590;BME280;1809;48.470;9.226;2023-12-29T09:34:48;-16522.38;;;12.68;100.00
3590;BME280;1809;48.470;9.226;2023-12-29T09:37:14;-16519.84;;;12.59;100.00
3590;BME280;1809;48.470;9.226;2023-12-29T09:39:39;-16520.69;;;12.62;100.00
3590;BME280;1809;48.470;9.226;2023-12-29T09:42:05;-16520.97;;;12.63;100.00
3590;BME280;1809;48.470;9.226;2023-12-29T09:44:32;-16520.69;;;12.62;100.00
3590;BME280;1809;48.470;9.226;2023-12-29T09:47:02;-16523.34;;;12.72;100.00
3590;BME280;1809;48.470;9.226;2023-12-29T09:49:36;-16523.75;;;12.73;100.00
3590;BME280;1809;48.470;9.226;2023-12-29T09:52:04;-16525.16;;;12.78;100.00
3590;BME280;1809;48.470;9.226;2023-12-29T09:54:30;-16526.28;;;12.82;100.00
3590;BME280;1809;48.470;9.226;2023-12-29T09:56:56;-16529.66;;;12.94;100.00
3590;BME280;1809;48.470;9.226;2023-12-29T09:59:23;-16530.22;;;12.97;100.00
3590;BME280;1809;48.470;9.226;2023-12-29T10:01:51;-16533.88;;;13.10;100.00
3590;BME280;1809;48.470;9.226;2023-12-29T10:04:17;-16534.44;;;13.12;100.00
3590;BME280;1809;48.470;9.226;2023-12-29T10:06:44;-16534.56;;;13.12;100.00
3590;BME280;1809;48.470;9.226;2023-12-29T10:09:12;-16532.88;;;13.06;100.00
3590;BME280;1809;48.470;9.226;2023-12-29T10:11:40;-16533.16;;;13.07;100.00
3590;BME280;1809;48.470;9.226;2023-12-29T10:14:26;-16524.63;;;12.76;100.00
3590;BME280;1809;48.470;9.226;2023-12-29T10:16:54;-16527.97;;;12.88;100.00
3590;BME280;1809;48.470;9.226;2023-12-29T10:19:41;-16525.44;;;12.79;100.00
3590;BME280;1809;48.470;9.226;2023-12-29T10:22:32;-16520.41;;;12.61;100.00
3590;BME280;1809;48.470;9.226;2023-12-29T10:25:01;-16520.25;;;12.61;100.00
3590;BME280;1809;48.470;9.226;2023-12-29T10:27:27;-16519.00;;;12.56;100.00
3590;BME280;1809;48.470;9.226;2023-12-29T10:29:52;-16518.44;;;12.54;100.00
3590;BME280;1809;48.470;9.226;2023-12-29T10:32:17;-16517.31;;;12.50;100.00
3590;BME280;1809;48.470;9.226;2023-12-29T10:34:43;-16516.75;;;12.48;100.00
3590;BME280;1809;48.470;9.226;2023-12-29T10:37:08;-16516.47;;;12.47;100.00
3590;BME280;1809;48.470;9.226;2023-12-29T10:39:54;-16518.56;;;12.55;100.00
3590;BME280;1809;48.470;9.226;2023-12-29T10:42:20;-16515.50;;;12.44;100.00
3590;BME280;1809;48.470;9.226;2023-12-29T10:44:46;-16518.72;;;12.55;100.00
3590;BME280;1809;48.470;9.226;2023-12-29T10:47:11;-16522.09;;;12.67;100.00
3590;BME280;1809;48.470;9.226;2023-12-29T10:49:39;-16521.53;;;12.65;100.00
3590;BME280;1809;48.470;9.226;2023-12-29T10:52:14;-16524.03;;;12.74;100.00
3590;BME280;1809;48.470;9.226;2023-12-29T10:54:40;-16522.78;;;12.70;100.00
3590;BME280;1809;48.470;9.226;2023-12-29T10:57:07;-16524.31;;;12.75;100.00
3590;BME280;1809;48.470;9.226;2023-12-29T10:59:32;-16523.22;;;12.71;100.00
3590;BME280;1809;48.470;9.226;2023-12-29T11:02:01;-16518.16;;;12.53;100.00
3590;BME280;1809;48.470;9.226;2023-12-29T11:04:27;-16515.06;;;12.42;100.00
3590;BME280;1809;48.470;9.226;2023-12-29T11:06:54;-16515.34;;;12.43;100.00
3590;BME280;1809;48.470;9.226;2023-12-29T11:09:29;-16513.09;;;12.35;100.00
3590;BME280;1809;48.470;9.226;2023-12-29T11:12:02;-16514.09;;;12.38;100.00
3590;BME280;1809;48.470;9.226;2023-12-29T11:14:28;-16515.22;;;12.43;100.00
3590;BME280;1809;48.470;9.226;2023-12-29T11:16:57;-16517.72;;;12.52;100.00
3590;BME280;1809;48.470;9.226;2023-12-29T11:19:29;-16519.84;;;12.59;100.00
3590;BME280;1809;48.470;9.226;2023-12-29T11:21:55;-16519.97;;;12.60;100.00
3590;BME280;1809;48.470;9.226;2023-12-29T11:24:21;-16522.38;;;12.68;100.00
3590;BME280;1809;48.470;9.226;2023-12-29T11:26:49;-16524.88;;;12.77;100.00
3590;BME280;1809;48.470;9.226;2023-12-29T11:29:16;-16525.44;;;12.79;100.00
3590;BME280;1809;48.470;9.226;2023-12-29T11:31:41;-16525.59;;;12.80;100.00
3590;BME280;1809;48.470;9.226;2023-12-29T11:34:12;-16521.81;;;12.66;100.00
3590;BME280;1809;48.470;9.226;2023-12-29T11:36:46;-16522.50;;;12.69;100.00
3590;BME280;1809;48.470;9.226;2023-12-29T11:39:33;-16516.47;;;12.47;100.00
3590;BME280;1809;48.470;9.226;2023-12-29T11:42:26;-16518.44;;;12.54;100.00
3590;BME280;1809;48.470;9.226;2023-12-29T11:44:52;-16518.44;;;12.54;100.00
3590;BME280;1809;48.470;9.226;2023-12-29T11:47:37;-16510.28;;;12.25;100.00
3590;BME280;1809;48.470;9.226;2023-12-29T11:50:03;-16508.47;;;12.18;100.00
3590;BME280;1809;48.470;9.226;2023-12-29T11:52:36;-16511.41;;;12.29;100.00
3590;BME280;1809;48.470;9.226;2023-12-29T11:55:12;-16514.66;;;12.40;100.00
3590;BME280;1809;48.470;9.226;2023-12-29T11:57:38;-16514.22;;;12.39;100.00
3590;BME280;1809;48.470;9.226;2023-12-29T12:00:06;-16511.13;;;12.28;100.00
3590;BME280;1809;48.470;9.226;2023-12-29T12:02:31;-16511.00;;;12.27;100.00
3590;BME280;1809;48.470;9.226;2023-12-29T12:04:57;-16513.38;;;12.36;100.00
3590;BME280;1809;48.470;9.226;2023-12-29T12:09:51;-16510.84;;;12.27;100.00
3590;BME280;1809;48.470;9.226;2023-12-29T12:12:41;-16509.31;;;12.21;100.00
3590;BME280;1809;48.470;9.226;2023-12-29T12:15:33;-16509.44;;;12.22;100.00
3590;BME280;1809;48.470;9.226;2023-12-29T12:18:00;-16510.44;;;12.25;100.00
3590;BME280;1809;48.470;9.226;2023-12-29T12:20:26;-16510.56;;;12.26;100.00
3590;BME280;1809;48.470;9.226;2023-12-29T12:22:58;-16506.50;;;12.11;100.00
3590;BME280;1809;48.470;9.226;2023-12-29T12:25:29;-16507.22;;;12.14;100.00
3590;BME280;1809;48.470;9.226;2023-12-29T12:27:55;-16507.22;;;12.14;100.00
3590;BME280;1809;48.470;9.226;2023-12-29T12:30:21;-16505.53;;;12.08;100.00
3590;BME280;1809;48.470;9.226;2023-12-29T12:32:56;-16506.09;;;12.10;100.00
3590;BME280;1809;48.470;9.226;2023-12-29T12:35:22;-16505.81;;;12.09;100.00
3590;BME280;1809;48.470;9.226;2023-12-29T12:37:47;-16505.66;;;12.08;100.00
3590;BME280;1809;48.470;9.226;2023-12-29T12:40:24;-16505.25;;;12.07;100.00
3590;BME280;1809;48.470;9.226;2023-12-29T12:42:50;-16505.81;;;12.09;100.00
3590;BME280;1809;48.470;9.226;2023-12-29T12:45:20;-16506.09;;;12.10;100.00
3590;BME280;1809;48.470;9.226;2023-12-29T12:47:52;-16503.84;;;12.02;100.00
3590;BME280;1809;48.470;9.226;2023-12-29T12:50:18;-16525.59;;;12.80;100.00
3590;BME280;1809;48.470;9.226;2023-12-29T12:52:45;-16542.56;;;13.41;100.00
3590;BME280;1809;48.470;9.226;2023-12-29T12:55:11;-16547.34;;;13.58;100.00
3590;BME280;1809;48.470;9.226;2023-12-29T12:57:38;-16546.91;;;13.57;100.00
3590;BME280;1809;48.470;9.226;2023-12-29T13:00:04;-16552.38;;;13.76;100.00
3590;BME280;1809;48.470;9.226;2023-12-29T13:02:31;-16551.69;;;13.74;100.00
3590;BME280;1809;48.470;9.226;2023-12-29T13:04:58;-16552.38;;;13.76;100.00